Time;durP1;ratioP1;P1;durP2;ratioP2;P2;SDS_P1;SDS_P2;PMS_P1;PMS_P2;Temp;Humidity;BMP_temperature;BMP_pressure;BME280_temperature;BME280_humidity;BME280_pressure;Samples;Min_cycle;Max_cycle;Signal;HPM_P1;HPM_P2
2022/05/13 00:01:54;;;;;;;;;3.00;1.50;;;;;18.07;37.71;101688.31;5000736;28;45504;-52
2022/05/13 00:04:20;;;;;;;;;3.50;1.00;;;;;18.04;37.67;101685.75;5000419;28;45598;-53
2022/05/13 00:06:46;;;;;;;;;1.25;1.25;;;;;18.02;37.71;101695.56;5000533;28;45307;-53
2022/05/13 00:09:11;;;;;;;;;2.00;1.50;;;;;17.97;37.75;101698.34;5003932;28;45322;-52
2022/05/13 00:11:37;;;;;;;;;3.00;2.00;;;;;17.95;37.76;101689.56;4991207;28;45929;-50
2022/05/13 00:14:04;;;;;;;;;1.00;1.00;;;;;17.92;37.79;101697.59;5000398;28;45353;-52
2022/05/13 00:16:29;;;;;;;;;1.25;1.25;;;;;17.91;37.41;101702.97;5000591;28;45258;-52
2022/05/13 00:18:55;;;;;;;;;0.00;0.00;;;;;17.87;37.80;101694.19;4999477;28;45379;-51
2022/05/13 00:21:20;;;;;;;;;1.00;1.00;;;;;17.85;37.64;101688.94;5000403;28;45378;-49
2022/05/13 00:23:46;;;;;;;;;2.00;1.00;;;;;17.82;37.51;101689.03;5000008;28;46415;-53
2022/05/13 00:26:12;;;;;;;;;0.50;0.00;;;;;17.80;37.83;101682.03;5000211;28;45708;-53
2022/05/13 00:28:37;;;;;;;;;2.00;2.00;;;;;17.74;37.47;101691.03;4982849;28;45407;-53
2022/05/13 00:31:04;;;;;;;;;1.00;0.00;;;;;17.73;37.51;101693.75;5000380;28;45445;-50
2022/05/13 00:33:31;;;;;;;;;1.00;1.00;;;;;17.62;37.52;101678.09;5000083;28;46909;-52
2022/05/13 00:35:57;;;;;;;;;1.25;1.25;;;;;17.67;37.23;101689.47;5000063;28;45325;-52
2022/05/13 00:38:22;;;;;;;;;1.50;0.75;;;;;17.64;37.34;101684.25;4999826;28;45269;-51
2022/05/13 00:40:48;;;;;;;;;0.75;0.00;;;;;17.60;37.22;101683.47;5000164;28;45198;-53
2022/05/13 00:43:34;;;;;;;;;1.50;1.50;;;;;17.58;37.22;101693.25;4999848;28;46402;-51
2022/05/13 00:46:03;;;;;;;;;1.25;1.00;;;;;17.55;37.15;101688.91;4999992;28;45289;-54
2022/05/13 00:48:28;;;;;;;;;1.00;1.00;;;;;17.55;36.93;101693.38;5000107;28;45327;-52
2022/05/13 00:50:54;;;;;;;;;0.00;0.00;;;;;17.46;37.42;101673.22;5000090;28;45432;-51
2022/05/13 00:53:20;;;;;;;;;1.00;0.00;;;;;17.48;37.14;101684.69;4999776;28;45883;-52
2022/05/13 00:55:46;;;;;;;;;0.00;0.00;;;;;17.46;36.95;101681.22;4999788;28;45313;-51
2022/05/13 00:58:17;;;;;;;;;1.50;0.00;;;;;17.45;37.21;101686.56;4982416;28;45514;-51
2022/05/13 01:00:43;;;;;;;;;1.00;0.00;;;;;17.44;37.29;101684.81;4999730;28;45323;-54
2022/05/13 01:03:13;;;;;;;;;0.25;0.25;;;;;17.41;36.95;101685.78;4999665;28;46612;-53
2022/05/13 01:05:43;;;;;;;;;0.75;0.00;;;;;17.37;36.78;101681.44;4999830;28;45429;-51
2022/05/13 01:08:11;;;;;;;;;0.50;0.50;;;;;17.37;36.89;101686.75;4999456;28;45370;-50
2022/05/13 01:10:39;;;;;;;;;1.75;1.00;;;;;17.34;36.97;101692.16;5011303;28;45589;-53
2022/05/13 01:13:08;;;;;;;;;0.00;0.00;;;;;17.29;36.97;101688.78;4999589;28;45700;-53
2022/05/13 01:15:37;;;;;;;;;0.25;0.25;;;;;17.27;36.85;101690.59;4999516;28;45318;-53
2022/05/13 01:18:05;;;;;;;;;0.00;0.00;;;;;17.26;36.88;101695.03;4999505;28;45251;-52
2022/05/13 01:20:51;;;;;;;;;0.00;0.00;;;;;17.23;36.94;101692.44;4999532;28;45434;-49
2022/05/13 01:23:19;;;;;;;;;0.25;0.25;;;;;17.21;36.64;101697.81;4998721;28;45259;-52
2022/05/13 01:25:48;;;;;;;;;0.75;0.75;;;;;17.16;36.65;101697.06;4999358;28;45484;-54
2022/05/13 01:28:20;;;;;;;;;0.00;0.00;;;;;17.16;36.53;101699.72;4999479;28;45234;-50
2022/05/13 01:30:49;;;;;;;;;2.00;0.25;;;;;17.11;36.69;101690.16;5001275;28;45320;-53
2022/05/13 01:33:16;;;;;;;;;1.00;1.00;;;;;17.09;36.74;101697.28;4984830;28;45338;-55
2022/05/13 01:35:44;;;;;;;;;0.50;0.00;;;;;17.05;36.71;101700.00;5002976;28;45371;-52
2022/05/13 01:38:10;;;;;;;;;0.00;0.00;;;;;17.03;36.46;101701.84;5002531;28;45429;-50
2022/05/13 01:40:36;;;;;;;;;1.00;0.00;;;;;16.97;36.88;101699.34;5002881;28;45405;-54
2022/05/13 01:43:02;;;;;;;;;1.25;0.00;;;;;16.96;36.61;101708.22;5002633;28;46309;-53
2022/05/13 01:45:28;;;;;;;;;1.00;0.00;;;;;16.96;36.92;101710.00;5002973;28;45385;-53
2022/05/13 01:47:53;;;;;;;;;2.00;0.25;;;;;16.92;36.62;101706.53;5002672;28;45779;-52
2022/05/13 01:50:19;;;;;;;;;0.50;0.50;;;;;16.88;36.83;101705.72;5002914;28;45208;-54
2022/05/13 01:52:44;;;;;;;;;0.00;0.00;;;;;16.87;36.43;101706.63;4984896;28;46228;-52
2022/05/13 01:55:09;;;;;;;;;1.00;0.50;;;;;16.82;36.57;101699.69;5002276;28;45211;-54
2022/05/13 01:57:35;;;;;;;;;1.50;0.75;;;;;16.82;36.65;101697.91;5002652;28;45235;-52
2022/05/13 02:00:01;;;;;;;;;0.75;0.00;;;;;16.80;36.57;101696.19;5002729;28;45187;-50
2022/05/13 02:02:26;;;;;;;;;2.00;2.00;;;;;16.78;36.65;101698.00;5002447;28;45367;-51
2022/05/13 02:04:53;;;;;;;;;2.25;2.00;;;;;16.75;36.84;101704.28;5002490;28;45423;-52
2022/05/13 02:07:18;;;;;;;;;1.50;0.25;;;;;16.72;36.65;101699.91;5002583;28;45329;-53
2022/05/13 02:09:43;;;;;;;;;1.00;1.00;;;;;16.71;36.83;101708.78;5009782;28;45370;-50
2022/05/13 02:12:09;;;;;;;;;0.75;0.25;;;;;16.66;36.81;101697.41;5006624;28;45355;-54
2022/05/13 02:14:34;;;;;;;;;3.00;1.00;;;;;16.66;36.71;101704.50;5002406;28;45263;-54
2022/05/13 02:17:00;;;;;;;;;1.25;0.75;;;;;16.64;36.99;101696.59;5002382;28;45497;-54
2022/05/13 02:19:25;;;;;;;;;1.00;0.75;;;;;16.62;36.93;101694.88;5000821;28;45386;-52
2022/05/13 02:21:51;;;;;;;;;2.50;0.00;;;;;16.60;36.66;101702.00;5002025;28;46406;-53
2022/05/13 02:24:16;;;;;;;;;2.00;0.50;;;;;16.56;36.70;101698.53;5001800;28;45334;-52
2022/05/13 02:26:42;;;;;;;;;2.25;0.75;;;;;16.55;37.27;101704.75;5002006;28;45241;-50
2022/05/13 02:29:07;;;;;;;;;1.00;1.00;;;;;16.54;37.01;101701.25;5002083;28;45373;-53
2022/05/13 02:31:34;;;;;;;;;0.25;0.25;;;;;16.53;37.17;101709.25;5001834;28;46330;-50
2022/05/13 02:33:59;;;;;;;;;2.75;1.00;;;;;16.50;37.11;101710.19;5002079;28;45249;-52
2022/05/13 02:36:26;;;;;;;;;1.25;1.25;;;;;16.48;37.30;101708.47;5001867;28;45490;-53
2022/05/13 02:38:52;;;;;;;;;2.00;2.00;;;;;16.46;37.06;101711.16;5001749;28;45215;-54
2022/05/13 02:41:17;;;;;;;;;1.25;1.25;;;;;16.44;37.28;101705.03;4983542;28;46110;-52
2022/05/13 02:43:45;;;;;;;;;0.00;0.00;;;;;16.42;37.69;101702.38;5001657;28;45341;-51
2022/05/13 02:46:11;;;;;;;;;1.00;1.00;;;;;16.41;37.59;101710.38;5001883;28;45352;-52
2022/05/13 02:48:37;;;;;;;;;3.75;2.00;;;;;16.39;37.51;101704.25;5001808;28;45244;-53
2022/05/13 02:51:02;;;;;;;;;2.50;1.50;;;;;16.38;37.45;101713.13;5000135;28;46957;-53
2022/05/13 02:53:28;;;;;;;;;1.00;1.00;;;;;16.33;37.58;101702.63;5001550;28;45296;-53
2022/05/13 02:55:53;;;;;;;;;4.00;1.00;;;;;16.33;37.90;101704.41;5000185;28;45231;-53
2022/05/13 02:58:19;;;;;;;;;2.00;1.50;;;;;16.32;37.74;101697.34;5001466;28;45485;-50
2022/05/13 03:00:44;;;;;;;;;2.00;1.00;;;;;16.28;37.77;101695.69;5001471;28;45356;-50
2022/05/13 03:03:11;;;;;;;;;14.50;13.00;;;;;16.28;37.79;101701.84;4983853;28;45220;-52
2022/05/13 03:05:38;;;;;;;;;18.00;14.25;;;;;16.25;38.19;101700.13;5001666;28;45471;-50
2022/05/13 03:08:05;;;;;;;;;16.25;15.25;;;;;16.24;38.00;101703.69;5001048;28;45373;-53
2022/05/13 03:10:33;;;;;;;;;3.00;3.00;;;;;16.21;38.15;101689.63;5012915;28;47270;-51
2022/05/13 03:12:59;;;;;;;;;2.50;2.25;;;;;16.23;38.05;101703.72;5001265;28;45291;-49
2022/05/13 03:15:26;;;;;;;;;5.00;4.00;;;;;16.21;37.82;101698.47;5001309;28;45233;-52
2022/05/13 03:17:51;;;;;;;;;3.00;3.00;;;;;16.18;38.17;101701.19;5001411;28;45188;-52
2022/05/13 03:20:19;;;;;;;;;3.00;3.00;;;;;16.18;38.15;101708.28;5000856;28;45552;-54
2022/05/13 03:22:45;;;;;;;;;3.00;3.00;;;;;16.15;38.13;101703.03;4983655;28;46486;-54
2022/05/13 03:25:11;;;;;;;;;3.00;3.00;;;;;16.15;38.33;101700.38;5000985;28;45460;-51
2022/05/13 03:27:37;;;;;;;;;3.50;3.50;;;;;16.13;38.29;101703.06;5000078;28;45923;-53
2022/05/13 03:30:04;;;;;;;;;3.50;3.50;;;;;16.13;38.16;101703.06;5000859;28;46194;-51
2022/05/13 03:32:29;;;;;;;;;3.25;3.25;;;;;16.11;38.15;101710.16;5001286;28;45171;-53
2022/05/13 03:34:55;;;;;;;;;3.25;3.25;;;;;16.07;38.42;101704.09;5001103;28;45154;-52
2022/05/13 03:37:20;;;;;;;;;4.75;3.75;;;;;16.09;38.37;101706.69;5001015;28;45168;-52
2022/05/13 03:39:46;;;;;;;;;7.25;4.00;;;;;16.06;38.72;101707.63;5000518;28;45328;-53
2022/05/13 03:42:11;;;;;;;;;4.75;4.75;;;;;16.05;38.35;101705.88;4999764;28;45192;-53
2022/05/13 03:44:37;;;;;;;;;5.50;5.25;;;;;16.04;38.32;101701.47;5000995;28;45376;-53
2022/05/13 03:47:04;;;;;;;;;6.25;5.00;;;;;16.01;38.68;101704.22;5000875;28;45428;-51
2022/05/13 03:49:29;;;;;;;;;3.75;3.00;;;;;16.00;38.55;101701.56;5000948;28;46132;-49
2022/05/13 03:51:55;;;;;;;;;4.25;4.25;;;;;16.00;38.87;101704.22;5000934;28;45351;-53
2022/05/13 03:54:20;;;;;;;;;3.25;2.50;;;;;15.98;38.86;101704.25;4998071;28;45399;-53
2022/05/13 03:56:45;;;;;;;;;7.50;6.25;;;;;15.98;38.46;101708.72;5000803;28;45323;-51
2022/05/13 03:59:11;;;;;;;;;7.25;5.00;;;;;15.98;38.84;101714.00;5000568;28;45992;-54
2022/05/13 04:01:36;;;;;;;;;4.25;4.00;;;;;15.96;39.07;101710.50;5000808;28;45333;-53
2022/05/13 04:04:02;;;;;;;;;6.00;4.25;;;;;15.92;38.97;101707.94;5000884;28;45323;-53
2022/05/13 04:09:11;;;;;;;;;5.75;3.50;;;;;15.88;38.94;101706.22;5003618;28;45657;-49
2022/05/13 04:11:39;;;;;;;;;5.25;4.00;;;;;15.90;38.93;101717.69;5008831;28;45351;-52
2022/05/13 04:16:51;;;;;;;;;3.25;3.00;;;;;15.84;39.06;101709.00;5000272;28;45215;-53
2022/05/13 04:19:18;;;;;;;;;3.00;3.00;;;;;15.86;39.03;101717.78;5000117;28;45408;-53
2022/05/13 04:21:44;;;;;;;;;1.50;1.50;;;;;15.86;38.87;101729.25;5000367;28;45226;-50
2022/05/13 04:24:13;;;;;;;;;2.00;2.00;;;;;15.84;39.36;101719.59;5000146;28;45412;-53
2022/05/13 04:26:38;;;;;;;;;3.00;2.50;;;;;15.80;39.16;101712.56;4982555;28;45255;-51
2022/05/13 04:29:05;;;;;;;;;4.00;4.00;;;;;15.83;39.14;101721.34;5000113;28;46331;-52
2022/05/13 04:31:41;;;;;;;;;3.00;3.00;;;;;15.82;39.48;101718.75;5000159;28;45180;-52
2022/05/13 04:34:08;;;;;;;;;4.00;3.25;;;;;15.84;39.39;101730.22;5000370;28;45307;-50
2022/05/13 04:36:34;;;;;;;;;3.25;2.50;;;;;15.84;39.45;101731.06;4998636;28;45732;-52
2022/05/13 04:39:00;;;;;;;;;5.00;3.00;;;;;15.83;39.53;101737.25;4999459;28;45401;-51
2022/05/13 04:44:12;;;;;;;;;5.50;3.25;;;;;15.79;39.56;101738.19;5000412;28;45278;-49
2022/05/13 04:46:38;;;;;;;;;4.25;3.75;;;;;15.78;39.58;101736.44;4999942;28;45504;-50
2022/05/13 04:49:05;;;;;;;;;3.00;2.50;;;;;15.74;40.13;101733.00;4999936;28;45160;-54
2022/05/13 04:51:30;;;;;;;;;6.00;4.50;;;;;15.73;39.63;101733.88;4999908;28;45332;-52
2022/05/13 04:53:57;;;;;;;;;5.75;3.00;;;;;15.72;39.67;101733.91;4999886;28;45473;-52
2022/05/13 04:56:24;;;;;;;;;5.00;5.00;;;;;15.71;40.15;101737.47;4999921;28;45476;-51
2022/05/13 04:58:50;;;;;;;;;3.00;2.00;;;;;15.69;39.99;101734.84;4999670;28;46278;-53
2022/05/13 05:01:17;;;;;;;;;2.75;1.50;;;;;15.70;40.03;101741.91;4998578;28;45744;-52
2022/05/13 05:03:44;;;;;;;;;5.00;3.25;;;;;15.71;40.39;101740.13;4999980;28;45291;-54
2022/05/13 05:06:10;;;;;;;;;4.00;2.50;;;;;15.71;40.02;101740.13;5003237;28;45247;-52
2022/05/13 05:08:36;;;;;;;;;4.00;3.00;;;;;15.71;40.54;101748.97;5005826;28;45235;-52
2022/05/13 05:11:03;;;;;;;;;2.50;2.00;;;;;15.70;40.49;101746.34;5018033;28;45373;-52
2022/05/13 05:13:37;;;;;;;;;3.50;2.75;;;;;15.70;40.27;101755.16;5006291;28;45451;-54
2022/05/13 05:16:05;;;;;;;;;7.00;3.00;;;;;15.70;40.38;101755.16;5005966;28;45501;-53
2022/05/13 05:18:31;;;;;;;;;5.50;4.75;;;;;15.67;40.99;101760.53;4987863;28;46311;-52
2022/05/13 05:20:57;;;;;;;;;4.75;2.50;;;;;15.65;41.02;101753.53;5005921;28;45369;-51
2022/05/13 05:23:27;;;;;;;;;3.00;2.00;;;;;15.66;40.82;101764.06;5005951;28;45218;-53
2022/05/13 05:25:53;;;;;;;;;7.00;3.50;;;;;15.65;41.12;101764.13;5006239;28;45416;-52
2022/05/13 05:28:19;;;;;;;;;2.00;2.00;;;;;15.64;40.87;101771.16;5005763;28;46189;-53
2022/05/13 05:30:44;;;;;;;;;2.50;2.50;;;;;15.61;41.20;101771.25;5006202;28;45394;-52
2022/05/13 05:33:11;;;;;;;;;6.50;3.00;;;;;15.51;40.89;101759.03;5006080;28;45381;-52
2022/05/13 05:35:36;;;;;;;;;3.00;3.00;;;;;15.60;41.52;101777.44;5005916;28;45571;-53
2022/05/13 05:38:02;;;;;;;;;6.00;5.00;;;;;15.62;41.25;101772.97;5005432;28;46116;-52
2022/05/13 05:40:28;;;;;;;;;2.75;2.75;;;;;15.61;41.56;101779.19;5004532;28;45200;-52
2022/05/13 05:42:53;;;;;;;;;3.50;1.75;;;;;15.62;41.59;101777.41;5006107;28;45176;-53
2022/05/13 05:45:21;;;;;;;;;4.25;3.00;;;;;15.60;41.22;101780.94;5005995;28;45267;-53
2022/05/13 05:47:47;;;;;;;;;6.25;3.00;;;;;15.61;41.50;101779.19;5005760;28;46712;-51
2022/05/13 05:50:17;;;;;;;;;4.75;3.00;;;;;15.59;41.43;101781.84;5005794;28;45343;-52
2022/05/13 05:52:42;;;;;;;;;6.75;4.25;;;;;15.59;41.52;101788.94;5005858;28;45327;-52
2022/05/13 05:57:57;;;;;;;;;4.25;3.00;;;;;15.55;41.92;101787.25;5005636;28;45219;-52
2022/05/13 06:00:22;;;;;;;;;2.25;2.00;;;;;15.53;41.74;101800.50;5005568;28;45385;-53
2022/05/13 06:02:48;;;;;;;;;6.00;2.50;;;;;15.52;42.05;101797.88;5005567;28;45541;-51
2022/05/13 06:05:13;;;;;;;;;4.25;2.00;;;;;15.51;41.97;101797.03;5005695;28;45460;-48
2022/05/13 06:07:38;;;;;;;;;5.75;3.00;;;;;15.51;42.31;101794.38;5005414;28;45362;-51
2022/05/13 06:10:04;;;;;;;;;12.25;5.00;;;;;15.50;41.87;101797.91;5000606;28;45536;-53
2022/05/13 06:12:29;;;;;;;;;5.25;4.75;;;;;15.50;42.18;101805.88;5006535;28;45451;-53
2022/05/13 06:14:54;;;;;;;;;5.50;4.75;;;;;15.48;41.99;101794.41;5003973;28;45647;-54
2022/05/13 06:17:20;;;;;;;;;3.00;2.75;;;;;15.50;42.01;101805.88;5002264;28;46122;-54
2022/05/13 06:19:46;;;;;;;;;3.25;2.50;;;;;15.49;42.19;101803.25;5001690;28;45270;-49
2022/05/13 06:22:11;;;;;;;;;4.25;4.25;;;;;15.50;42.03;101808.50;5002012;28;45237;-51
2022/05/13 06:24:37;;;;;;;;;5.75;4.75;;;;;15.50;42.22;101811.16;5001374;28;45391;-52
2022/05/13 06:27:03;;;;;;;;;5.00;4.00;;;;;15.51;42.38;101802.31;5002323;28;46344;-52
2022/05/13 06:29:29;;;;;;;;;5.00;3.75;;;;;15.50;42.25;101807.66;5001849;28;45274;-44
2022/05/13 06:31:55;;;;;;;;;4.25;3.00;;;;;15.54;42.24;101819.94;5015205;28;45310;-53
2022/05/13 06:34:22;;;;;;;;;8.00;5.00;;;;;15.56;41.99;101821.66;5002068;28;45586;-53
2022/05/13 06:36:47;;;;;;;;;6.00;3.00;;;;;15.56;42.20;101826.94;5001471;28;46194;-57
2022/05/13 06:39:13;;;;;;;;;3.00;3.00;;;;;15.60;42.45;101817.19;5001054;28;45459;-54
2022/05/13 06:41:40;;;;;;;;;4.00;4.00;;;;;15.63;42.37;101827.72;5001785;28;45354;-55
2022/05/13 06:44:09;;;;;;;;;4.25;2.50;;;;;15.65;42.63;101830.34;5002186;28;45458;-53
2022/05/13 06:46:37;;;;;;;;;4.50;4.00;;;;;15.69;42.64;101832.03;5018997;28;45588;-55
2022/05/13 06:49:04;;;;;;;;;3.50;3.50;;;;;15.71;42.41;101833.75;5021303;28;45492;-54
2022/05/13 06:51:31;;;;;;;;;5.00;3.00;;;;;15.75;41.89;101831.94;5021453;28;45357;-54
2022/05/13 06:53:56;;;;;;;;;4.00;2.25;;;;;15.76;42.29;101833.69;5018397;28;45409;-54
2022/05/13 06:56:22;;;;;;;;;1.75;1.75;;;;;15.82;42.15;101833.56;5021331;28;46663;-51
2022/05/13 06:58:47;;;;;;;;;1.00;1.00;;;;;15.84;42.39;101842.38;5021373;28;45178;-53
2022/05/13 07:01:13;;;;;;;;;3.00;2.00;;;;;15.86;41.88;101840.59;5020348;28;45738;-52
2022/05/13 07:03:38;;;;;;;;;1.50;0.75;;;;;15.87;41.99;101842.34;5020137;28;45317;-51
2022/05/13 07:06:04;;;;;;;;;1.00;1.00;;;;;15.87;41.42;101845.00;5021326;28;45948;-52
2022/05/13 07:08:30;;;;;;;;;1.25;1.00;;;;;15.90;41.48;101852.00;5020858;28;45159;-50
2022/05/13 07:10:56;;;;;;;;;1.00;1.00;;;;;15.88;41.46;101845.84;5008145;28;45492;-51
2022/05/13 07:13:22;;;;;;;;;2.25;1.25;;;;;15.89;41.76;101845.81;5017117;28;45266;-52
2022/05/13 07:15:47;;;;;;;;;1.50;1.50;;;;;15.90;41.46;101850.22;5001099;28;46119;-50
2022/05/13 07:18:13;;;;;;;;;2.00;2.00;;;;;15.89;41.73;101847.59;5000810;28;45273;-54
2022/05/13 07:20:38;;;;;;;;;3.25;1.00;;;;;15.89;41.21;101852.91;5000011;28;45294;-53
2022/05/13 07:23:04;;;;;;;;;2.25;2.25;;;;;15.87;41.34;101852.94;5000816;28;45445;-53
2022/05/13 07:25:31;;;;;;;;;1.25;1.25;;;;;15.88;41.48;101846.72;5000905;28;46068;-51
2022/05/13 07:27:56;;;;;;;;;2.00;2.00;;;;;15.89;41.59;101853.75;5000736;28;45278;-51
2022/05/13 07:30:22;;;;;;;;;2.00;2.00;;;;;15.91;41.39;101845.78;5001252;28;45321;-56
2022/05/13 07:32:47;;;;;;;;;2.25;1.25;;;;;15.93;41.32;101847.50;5001273;28;45259;-52
2022/05/13 07:35:13;;;;;;;;;2.00;2.00;;;;;15.93;41.41;101844.84;5000894;28;45534;-54
2022/05/13 07:37:38;;;;;;;;;2.00;1.50;;;;;15.98;41.08;101851.84;5000699;28;45266;-52
2022/05/13 07:42:49;;;;;;;;;2.25;2.00;;;;;16.05;41.36;101846.41;5000949;28;45252;-53
2022/05/13 07:45:15;;;;;;;;;2.25;1.75;;;;;16.11;41.19;101855.13;5000602;28;45220;-52
2022/05/13 07:47:42;;;;;;;;;0.75;0.00;;;;;16.13;41.25;101848.91;5000812;28;45410;-54
2022/05/13 07:50:10;;;;;;;;;3.00;2.00;;;;;16.15;40.73;101852.41;4999633;28;45336;-52
2022/05/13 07:52:36;;;;;;;;;2.00;1.00;;;;;16.16;40.68;101851.50;5000518;28;45366;-49
2022/05/13 07:55:03;;;;;;;;;1.25;1.25;;;;;16.19;40.79;101856.72;5000189;28;46050;-53
2022/05/13 07:57:28;;;;;;;;;1.25;1.25;;;;;16.23;40.61;101857.53;4982888;28;45290;-54
2022/05/13 08:02:37;;;;;;;;;0.75;0.75;;;;;16.31;40.95;101846.78;5000735;28;45264;-54
2022/05/13 08:05:03;;;;;;;;;1.75;1.00;;;;;16.35;40.70;101848.44;5000410;28;45223;-54
2022/05/13 08:07:29;;;;;;;;;1.00;0.75;;;;;16.39;40.32;101845.72;5000416;28;45431;-52
2022/05/13 08:09:54;;;;;;;;;1.00;1.00;;;;;16.46;40.30;101851.75;5000065;28;45247;-52
2022/05/13 08:12:19;;;;;;;;;3.00;3.00;;;;;16.49;40.54;101841.09;5000313;28;45236;-54
2022/05/13 08:14:45;;;;;;;;;1.75;1.75;;;;;16.56;40.52;101842.72;5000385;28;46160;-52
2022/05/13 08:17:10;;;;;;;;;3.00;1.50;;;;;16.64;40.07;101841.66;5000138;28;45172;-51
2022/05/13 08:19:35;;;;;;;;;1.00;1.00;;;;;16.71;40.31;101849.44;5000270;28;45474;-50
2022/05/13 08:22:01;;;;;;;;;1.25;1.25;;;;;16.76;40.06;101838.72;5006811;28;45202;-52
2022/05/13 08:24:26;;;;;;;;;4.00;1.50;;;;;16.82;40.11;101838.59;4998531;28;47881;-52
2022/05/13 08:26:51;;;;;;;;;1.00;1.00;;;;;16.88;40.27;101843.75;5000231;28;45462;-54
2022/05/13 08:29:17;;;;;;;;;1.25;1.25;;;;;16.94;40.30;101844.56;4983230;28;45553;-52
2022/05/13 08:31:42;;;;;;;;;3.00;1.75;;;;;16.99;39.92;101845.31;5000129;28;45586;-50
2022/05/13 08:34:09;;;;;;;;;1.00;1.00;;;;;17.07;40.15;101846.03;5000390;28;45891;-52
2022/05/13 08:36:34;;;;;;;;;0.75;0.00;;;;;17.12;39.74;101844.13;5000020;28;45647;-50
2022/05/13 08:39:00;;;;;;;;;0.25;0.25;;;;;17.16;39.91;101847.59;4999848;28;45424;-53
2022/05/13 08:42:12;;;;;;;;;2.00;2.00;;;;;17.22;39.73;101845.66;4999340;28;45322;-50
2022/05/13 08:44:39;;;;;;;;;1.00;1.00;;;;;17.26;39.66;101849.09;4955734;28;46319;-53
2022/05/13 08:47:20;;;;;;;;;2.50;1.00;;;;;17.31;39.49;101851.66;5000152;28;45358;-52
2022/05/13 08:50:07;;;;;;;;;1.75;0.25;;;;;17.36;39.74;101844.44;5000138;28;45247;-54
2022/05/13 08:55:27;;;;;;;;;2.00;1.75;;;;;17.48;39.46;101862.72;4999656;28;45799;-53
2022/05/13 08:57:56;;;;;;;;;2.00;2.00;;;;;17.52;39.14;101851.09;4999531;28;45295;-53
2022/05/13 09:00:39;;;;;;;;;3.00;2.75;;;;;17.57;39.48;101852.75;4998709;28;45398;-52
2022/05/13 09:03:14;;;;;;;;;0.75;0.75;;;;;17.59;39.26;101843.84;4999660;28;45481;-51
2022/05/13 09:05:53;;;;;;;;;1.00;1.00;;;;;17.63;39.16;101842.81;4998243;28;46996;-50
2022/05/13 09:08:20;;;;;;;;;1.75;1.00;;;;;17.71;39.15;101842.66;4999427;28;45255;-50
2022/05/13 09:11:20;;;;;;;;;0.00;0.00;;;;;17.77;38.88;101842.47;4999460;28;45170;-52
2022/05/13 09:14:04;;;;;;;;;3.25;1.00;;;;;17.85;38.97;101844.94;4961453;28;45468;-51
2022/05/13 09:16:38;;;;;;;;;3.00;1.25;;;;;17.92;38.95;101842.97;4999430;28;45405;-52
2022/05/13 09:19:04;;;;;;;;;2.75;2.00;;;;;17.96;38.70;101849.97;4999257;28;45484;-49
2022/05/13 09:21:30;;;;;;;;;4.25;1.25;;;;;17.99;38.76;101840.13;5003843;28;45525;-51
2022/05/13 09:23:56;;;;;;;;;3.50;3.50;;;;;18.06;38.47;101847.94;5000956;28;45351;-53
2022/05/13 09:26:24;;;;;;;;;1.00;1.00;;;;;18.12;38.58;101850.44;4999574;28;45341;-54
2022/05/13 09:29:13;;;;;;;;;1.25;0.50;;;;;18.15;38.59;101853.00;4998090;28;45287;-53
2022/05/13 09:32:00;;;;;;;;;1.00;1.00;;;;;18.17;38.22;101851.16;4999469;28;45470;-53
2022/05/13 09:34:55;;;;;;;;;3.00;1.50;;;;;18.24;38.34;101850.09;4999310;28;45414;-54
2022/05/13 09:37:27;;;;;;;;;1.00;0.50;;;;;18.28;38.35;101853.53;4999489;28;45425;-52
2022/05/13 09:40:07;;;;;;;;;3.00;2.00;;;;;18.34;38.48;101845.38;4998884;28;45658;-52
2022/05/13 09:42:43;;;;;;;;;0.00;0.00;;;;;18.42;38.18;101848.66;4999381;28;45244;-53
2022/05/13 09:45:21;;;;;;;;;1.00;1.00;;;;;18.50;37.96;101843.09;4999113;28;45367;-52
2022/05/13 09:47:59;;;;;;;;;0.00;0.00;;;;;18.59;38.35;101834.88;4998991;28;46059;-53
2022/05/13 09:50:32;;;;;;;;;0.00;0.00;;;;;18.61;37.96;101848.13;4997879;28;45393;-52
2022/05/13 09:53:21;;;;;;;;;2.00;2.00;;;;;18.67;37.85;101847.94;4999580;28;45585;-52
2022/05/13 09:55:51;;;;;;;;;1.00;0.00;;;;;18.75;37.57;101845.03;4988181;28;45268;-54
2022/05/13 09:58:23;;;;;;;;;1.25;0.00;;;;;18.78;37.38;101840.50;4984905;28;45208;-54
2022/05/13 10:00:53;;;;;;;;;3.00;1.00;;;;;18.87;37.28;101838.44;4984722;28;45168;-53
2022/05/13 10:03:20;;;;;;;;;0.50;0.50;;;;;18.94;37.12;101827.59;5002638;28;45471;-51
2022/05/13 10:06:02;;;;;;;;;2.50;0.00;;;;;19.03;37.27;101837.09;5002447;28;45373;-54
2022/05/13 10:08:28;;;;;;;;;0.00;0.00;;;;;19.11;37.02;101831.50;4984321;28;47103;-54
2022/05/13 10:14:00;;;;;;;;;1.75;1.75;;;;;19.25;36.73;101825.72;5002291;28;45192;-53
2022/05/13 10:16:48;;;;;;;;;0.75;0.75;;;;;19.35;36.84;101821.81;5002185;28;45321;-53
2022/05/13 10:19:18;;;;;;;;;0.25;0.25;;;;;19.51;36.97;101834.59;5001850;28;45234;-54
2022/05/13 10:22:06;;;;;;;;;1.25;1.25;;;;;19.67;37.14;101830.47;4974574;28;45504;-53
2022/05/13 10:24:40;;;;;;;;;2.00;1.00;;;;;19.84;36.83;101837.06;4991783;28;45275;-53
2022/05/13 10:27:16;;;;;;;;;1.50;1.50;;;;;19.97;37.01;101823.22;5001893;28;45410;-54
2022/05/13 10:29:48;;;;;;;;;1.00;1.00;;;;;20.22;36.91;101829.44;5000484;28;48309;-54
2022/05/13 10:32:22;;;;;;;;;2.00;1.00;;;;;20.46;37.29;101820.50;5001887;28;45400;-54
2022/05/13 10:34:53;;;;;;;;;1.00;1.00;;;;;20.77;37.25;101830.00;5002041;28;45320;-55
2022/05/13 10:37:48;;;;;;;;;2.00;1.00;;;;;21.08;36.87;101814.50;5001792;28;45362;-53
2022/05/13 10:40:18;;;;;;;;;1.75;0.75;;;;;21.38;36.86;101812.38;5001574;28;45518;-53
2022/05/13 10:43:04;;;;;;;;;1.00;1.00;;;;;21.67;36.71;101804.03;5001912;28;45421;-52
2022/05/13 10:45:31;;;;;;;;;1.25;0.00;;;;;22.02;36.71;101817.66;5001883;28;45398;-54
2022/05/13 10:48:11;;;;;;;;;3.50;2.00;;;;;22.38;36.65;101816.91;5001517;28;45429;-55
2022/05/13 10:50:45;;;;;;;;;1.25;1.25;;;;;22.72;36.80;101812.63;5001766;28;46441;-54
2022/05/13 10:53:22;;;;;;;;;1.00;1.00;;;;;23.11;36.74;101805.38;5001313;28;45381;-53
2022/05/13 10:56:18;;;;;;;;;1.75;1.00;;;;;23.54;36.54;101798.69;5001627;28;45307;-54
2022/05/13 10:58:54;;;;;;;;;3.00;2.00;;;;;24.04;36.44;101800.59;5000423;28;46061;-55
2022/05/13 11:01:44;;;;;;;;;2.00;2.00;;;;;24.53;36.39;101797.00;5000127;28;46489;-54
2022/05/13 11:04:33;;;;;;;;;2.50;0.75;;;;;25.04;36.15;101800.34;5000902;28;45234;-53
2022/05/13 11:07:17;;;;;;;;;2.00;1.00;;;;;25.55;35.38;101797.34;5001687;28;45352;-55
2022/05/13 11:09:49;;;;;;;;;2.50;2.50;;;;;25.87;35.59;101799.88;5000983;28;45410;-55
2022/05/13 11:12:27;;;;;;;;;1.75;0.50;;;;;26.22;35.23;101801.34;5001457;28;46391;-55
2022/05/13 11:15:02;;;;;;;;;2.00;0.75;;;;;26.56;34.85;101797.31;5000133;28;45356;-55
2022/05/13 11:17:42;;;;;;;;;1.50;1.00;;;;;26.95;34.57;101793.97;5001413;28;45327;-54
2022/05/13 11:20:28;;;;;;;;;1.00;1.00;;;;;27.34;34.90;101798.44;5001163;28;45275;-54
2022/05/13 11:23:02;;;;;;;;;3.00;2.00;;;;;27.76;34.48;101792.03;5007395;28;46380;-55
2022/05/13 11:25:54;;;;;;;;;2.25;2.00;;;;;28.17;34.42;101799.91;5000938;28;45330;-54
2022/05/13 11:28:38;;;;;;;;;1.00;1.00;;;;;28.66;34.09;101783.75;5001524;28;45298;-54
2022/05/13 11:31:16;;;;;;;;;1.00;1.00;;;;;29.17;34.29;101788.91;5001108;28;45679;-54
2022/05/13 11:34:00;;;;;;;;;3.00;2.50;;;;;29.59;33.95;101780.28;4999617;28;47496;-54
2022/05/13 11:36:40;;;;;;;;;3.00;2.50;;;;;30.08;33.75;101789.06;4999693;28;45777;-54
2022/05/13 11:39:20;;;;;;;;;1.75;1.75;;;;;30.63;33.38;101783.69;5000721;28;45719;-54
2022/05/13 11:42:27;;;;;;;;;1.75;1.00;;;;;31.23;33.59;101785.06;4999390;28;45346;-54
2022/05/13 11:45:24;;;;;;;;;2.25;2.25;;;;;31.82;33.02;101777.28;5000617;28;46153;-53
2022/05/13 11:47:58;;;;;;;;;1.50;1.50;;;;;32.32;33.16;101779.19;5000814;28;45232;-54
2022/05/13 11:50:26;;;;;;;;;3.50;2.00;;;;;32.73;32.52;101779.97;5001076;28;45344;-53
2022/05/13 11:52:53;;;;;;;;;2.00;2.00;;;;;33.09;32.49;101782.97;5000465;28;45176;-53
2022/05/13 11:55:38;;;;;;;;;2.50;1.00;;;;;33.47;32.33;101777.63;5000444;28;45422;-54
2022/05/13 11:58:03;;;;;;;;;1.75;1.00;;;;;33.85;31.95;101778.53;5000357;28;45349;-52